createdAt,value
2022-10-26T05:12:09.721Z,13.99
2022-10-26T05:13:09.743Z,13.92
2022-10-26T05:14:09.784Z,13.96
2022-10-26T05:15:09.826Z,13.95
2022-10-26T05:16:09.876Z,13.95
2022-10-26T05:17:09.943Z,13.94
2022-10-26T05:18:09.993Z,14.04
2022-10-26T05:19:10.009Z,13.94
2022-10-26T05:20:10.057Z,13.96
2022-10-26T05:21:10.104Z,14.06
2022-10-26T05:22:10.151Z,14.01
2022-10-26T05:23:10.221Z,13.96
2022-10-26T05:24:12.480Z,13.99
2022-10-26T05:25:11.195Z,13.98
2022-10-26T05:26:10.344Z,14.02
2022-10-26T05:27:10.390Z,14.09
2022-10-26T05:28:10.440Z,14.10
2022-10-26T05:29:10.513Z,14.06
2022-10-26T05:30:10.534Z,14.07
2022-10-26T05:31:11.201Z,14.12
2022-10-26T05:32:10.629Z,14.16
2022-10-26T05:33:10.681Z,14.12
2022-10-26T05:34:10.752Z,14.14
2022-10-26T05:35:10.776Z,14.17
2022-10-26T05:36:10.825Z,14.14
2022-10-26T05:37:10.874Z,14.17
2022-10-26T05:38:11.040Z,14.17
2022-10-26T05:39:11.083Z,14.25
2022-10-26T05:40:11.736Z,14.20
2022-10-26T05:41:11.112Z,14.19
2022-10-26T05:42:11.162Z,14.25
2022-10-26T05:43:11.207Z,14.14
2022-10-26T05:44:11.331Z,14.24
2022-10-26T05:45:11.308Z,14.24
2022-10-26T05:46:11.321Z,14.20
2022-10-26T05:47:11.451Z,14.21
2022-10-26T05:48:11.444Z,14.27
2022-10-26T05:49:11.494Z,14.25
2022-10-26T05:50:11.543Z,14.20
2022-10-26T05:51:11.659Z,14.24
2022-10-26T05:52:11.626Z,14.25
2022-10-26T05:53:11.693Z,14.19
2022-10-26T05:54:13.909Z,14.14
2022-10-26T05:55:11.873Z,14.12
2022-10-26T05:56:11.897Z,14.27
2022-10-26T05:57:11.901Z,14.19
2022-10-26T05:58:11.916Z,14.35
2022-10-26T05:59:12.011Z,14.28
2022-10-26T06:00:12.052Z,14.42
2022-10-26T06:01:12.184Z,14.50
2022-10-26T06:02:12.214Z,14.54
2022-10-26T06:03:12.203Z,14.65
2022-10-26T06:04:12.213Z,14.57
2022-10-26T06:05:12.246Z,14.64
2022-10-26T06:06:12.324Z,14.61
2022-10-26T06:07:12.357Z,14.65
2022-10-26T06:08:12.514Z,14.67
2022-10-26T06:09:12.460Z,14.68
2022-10-26T06:10:12.518Z,14.69
2022-10-26T06:11:12.567Z,14.78
2022-10-26T06:12:14.437Z,14.74
2022-10-26T06:13:12.752Z,14.71
2022-10-26T06:14:12.798Z,14.74
2022-10-26T06:15:13.708Z,14.69
2022-10-26T06:16:12.765Z,14.72
2022-10-26T06:17:12.811Z,14.74
2022-10-26T06:18:12.895Z,14.69
2022-10-26T06:19:12.908Z,14.81
2022-10-26T06:21:13.060Z,14.91
2022-10-26T06:22:13.060Z,14.98
2022-10-26T06:23:13.134Z,14.94
2022-10-26T06:24:13.158Z,14.91
2022-10-26T06:25:13.760Z,14.90
2022-10-26T06:26:13.288Z,14.87
2022-10-26T06:27:17.009Z,14.83
2022-10-26T06:28:13.442Z,14.88
2022-10-26T06:29:13.454Z,14.88
2022-10-26T06:30:13.479Z,14.91
2022-10-26T06:31:13.545Z,14.90
2022-10-26T06:32:13.589Z,14.87
2022-10-26T06:33:24.961Z,14.86
2022-10-26T06:34:13.686Z,14.94
2022-10-26T06:35:13.726Z,14.95
2022-10-26T06:36:13.848Z,15.03
2022-10-26T06:37:13.821Z,15.17
2022-10-26T06:38:13.972Z,15.26
2022-10-26T06:39:13.927Z,15.15
2022-10-26T06:40:13.978Z,15.23
2022-10-26T06:41:14.005Z,15.24
2022-10-26T06:42:14.045Z,15.28
2022-10-26T06:43:14.176Z,15.39
2022-10-26T06:44:14.236Z,15.28
2022-10-26T06:46:15.265Z,15.35
2022-10-26T06:47:14.302Z,15.38
2022-10-26T06:48:15.251Z,15.39
2022-10-26T06:49:14.472Z,15.31
2022-10-26T06:50:15.257Z,15.33
2022-10-26T06:51:14.514Z,15.26
2022-10-26T06:52:14.582Z,15.20
2022-10-26T06:53:14.617Z,15.19
2022-10-26T06:54:15.238Z,15.15
2022-10-26T06:55:14.710Z,15.13
2022-10-26T06:56:14.769Z,15.08
2022-10-26T06:57:14.826Z,14.99
2022-10-26T06:58:15.752Z,14.99
2022-10-26T06:59:14.901Z,14.99
2022-10-26T07:00:15.802Z,14.95
2022-10-26T07:01:15.770Z,15.05
2022-10-26T07:02:15.247Z,14.99
2022-10-26T07:03:15.103Z,14.95
2022-10-26T07:04:15.766Z,15.03
2022-10-26T07:05:15.760Z,14.98
2022-10-26T07:06:15.315Z,14.95
2022-10-26T07:07:16.231Z,14.91
2022-10-26T07:08:16.279Z,14.90
2022-10-26T07:09:15.344Z,14.87
2022-10-26T07:10:15.447Z,14.83
2022-10-26T07:11:16.234Z,14.86
2022-10-26T07:12:15.540Z,14.81
2022-10-26T07:13:16.265Z,14.88
2022-10-26T07:14:15.610Z,14.86
2022-10-26T07:15:16.232Z,14.80
2022-10-26T07:16:15.714Z,14.86
2022-10-26T07:17:15.772Z,14.87
2022-10-26T07:18:16.756Z,14.86
2022-10-26T07:19:16.057Z,14.87
2022-10-26T07:20:15.882Z,14.93
2022-10-26T07:21:15.951Z,15.02
2022-10-26T07:22:16.004Z,15.08
2022-10-26T07:23:16.049Z,15.20
2022-10-26T07:24:16.077Z,15.26
2022-10-26T07:25:16.127Z,15.28
2022-10-26T07:26:16.175Z,15.36
2022-10-26T07:27:16.222Z,15.35
2022-10-26T07:28:16.294Z,15.27
2022-10-26T07:29:16.316Z,15.38
2022-10-26T07:30:16.368Z,15.36
2022-10-26T07:31:16.415Z,15.35
2022-10-26T07:32:16.490Z,15.35
2022-10-26T07:33:16.537Z,15.39
2022-10-26T07:34:16.567Z,15.39
2022-10-26T07:35:16.619Z,15.31
2022-10-26T07:36:16.681Z,15.31
2022-10-26T07:37:16.734Z,15.30
2022-10-26T07:38:16.759Z,15.24
2022-10-26T07:39:17.830Z,15.21
2022-10-26T07:40:16.893Z,15.11
2022-10-26T07:41:16.909Z,15.09
2022-10-26T07:42:16.980Z,15.09
2022-10-26T07:43:17.004Z,15.02
2022-10-26T07:44:17.053Z,15.05
2022-10-26T07:45:17.103Z,15.05
2022-10-26T07:46:17.158Z,15.06
2022-10-26T07:47:17.235Z,14.98
2022-10-26T07:48:17.247Z,14.94
2022-10-26T07:49:19.429Z,15.02
2022-10-26T07:50:17.345Z,15.01
2022-10-26T07:51:17.433Z,14.98
2022-10-26T07:52:17.442Z,14.95
2022-10-26T07:53:17.514Z,15.03
2022-10-26T07:54:17.545Z,14.98
2022-10-26T07:55:17.589Z,14.93
2022-10-26T07:56:17.666Z,14.91
2022-10-26T07:57:17.697Z,14.98
2022-10-26T07:58:17.737Z,15.03
2022-10-26T07:59:17.815Z,15.03
2022-10-26T08:00:17.850Z,15.05
2022-10-26T08:01:18.039Z,14.98
2022-10-26T08:02:17.936Z,14.99
2022-10-26T08:03:17.983Z,14.91
2022-10-26T08:04:18.056Z,14.98
2022-10-26T08:05:18.207Z,15.09
2022-10-26T08:06:18.128Z,15.08
2022-10-26T08:07:18.179Z,15.08
2022-10-26T08:08:18.267Z,15.20
2022-10-26T08:09:18.279Z,15.06
2022-10-26T08:10:18.361Z,15.09
2022-10-26T08:11:18.410Z,15.11
2022-10-26T08:12:18.584Z,15.02
2022-10-26T08:13:18.528Z,15.17
2022-10-26T08:14:18.558Z,15.11
2022-10-26T08:15:18.614Z,15.17
2022-10-26T08:16:18.665Z,15.11
2022-10-26T08:17:18.782Z,15.12
2022-10-26T08:18:18.835Z,15.12
2022-10-26T08:19:18.824Z,15.13
2022-10-26T08:20:18.866Z,15.12
2022-10-26T08:21:22.122Z,15.17
2022-10-26T08:22:18.973Z,15.08
2022-10-26T08:23:19.126Z,15.12
2022-10-26T08:24:19.039Z,15.09
2022-10-26T08:25:21.405Z,15.15
2022-10-26T08:26:19.149Z,15.12
2022-10-26T08:27:19.154Z,15.12
2022-10-26T08:28:19.246Z,15.08
2022-10-26T08:29:19.301Z,15.09
2022-10-26T08:30:19.342Z,15.06
2022-10-26T08:31:19.414Z,15.15
2022-10-26T08:32:19.447Z,15.12
2022-10-26T08:33:19.492Z,15.17
2022-10-26T08:34:19.556Z,15.21
2022-10-26T08:35:19.599Z,15.20
2022-10-26T08:36:19.724Z,15.23
2022-10-26T08:37:19.657Z,15.19
2022-10-26T08:38:19.719Z,15.23
2022-10-26T08:39:19.776Z,15.21
2022-10-26T08:40:19.821Z,15.21
2022-10-26T08:41:19.952Z,15.26
2022-10-26T08:42:19.927Z,15.27
2022-10-26T08:43:20.819Z,15.27
2022-10-26T08:44:20.089Z,15.27
2022-10-26T08:45:23.202Z,15.31
2022-10-26T08:46:20.087Z,15.36
2022-10-26T08:47:20.190Z,15.27
2022-10-26T08:48:20.250Z,15.35
2022-10-26T08:49:20.265Z,15.31
2022-10-26T08:50:20.495Z,15.28
2022-10-26T08:51:20.391Z,15.24
2022-10-26T09:27:38.789Z,16.50
2022-10-26T09:28:38.796Z,16.60
2022-10-26T09:29:38.842Z,16.68
2022-10-26T09:30:38.885Z,16.86
2022-10-26T09:31:42.345Z,16.92
2022-10-26T09:32:38.979Z,16.86
2022-10-26T09:33:39.028Z,16.85
2022-10-26T09:34:39.085Z,16.90
2022-10-26T09:35:39.128Z,16.78
2022-10-26T09:36:39.208Z,16.70
2022-10-26T09:37:39.255Z,16.75
2022-10-26T09:38:40.035Z,16.63
2022-10-26T09:39:39.327Z,16.56
2022-10-26T09:40:40.073Z,16.67
2022-10-26T09:41:39.421Z,16.77
2022-10-26T09:42:39.498Z,17.29
2022-10-26T09:43:39.563Z,17.51
2022-10-26T09:44:39.574Z,17.91
2022-10-26T09:45:40.347Z,17.99
2022-10-26T09:46:39.697Z,17.99
2022-10-26T09:47:39.758Z,18.04
2022-10-26T09:48:39.803Z,18.40
2022-10-26T09:49:39.823Z,18.79
2022-10-26T09:50:39.875Z,19.11
2022-10-26T09:51:39.938Z,19.25
2022-10-26T09:52:39.975Z,19.43
2022-10-26T09:53:40.055Z,19.60
2022-10-26T09:54:40.114Z,19.72
2022-10-26T09:55:40.859Z,19.54
2022-10-26T09:56:40.855Z,19.33
2022-10-26T09:57:40.229Z,19.14
2022-10-26T09:58:40.281Z,19.13
2022-10-26T09:59:40.361Z,19.14
2022-10-26T10:00:41.354Z,19.06
2022-10-26T10:01:42.292Z,19.11
2022-10-26T10:02:41.375Z,19.29
2022-10-26T10:03:41.355Z,19.65
2022-10-26T10:04:40.613Z,19.84
2022-10-26T10:05:55.867Z,20.10
2022-10-26T10:06:40.733Z,20.27
2022-10-26T10:07:40.746Z,20.33
2022-10-26T10:08:41.358Z,20.68
2022-10-26T10:09:41.360Z,20.86
2022-10-26T10:10:40.935Z,21.04
2022-10-26T10:11:41.864Z,21.23
2022-10-26T10:12:41.008Z,21.24
2022-10-26T10:13:41.858Z,21.46
2022-10-26T10:14:41.865Z,21.74
2022-10-26T10:15:41.186Z,21.79
2022-10-26T10:16:41.222Z,21.79
2022-10-26T10:17:41.303Z,21.79
2022-10-26T10:18:41.356Z,21.53
2022-10-26T10:19:42.364Z,21.48
2022-10-26T10:20:42.373Z,21.54
2022-10-26T10:21:41.530Z,21.29
2022-10-26T10:22:42.361Z,20.98
2022-10-26T10:23:42.364Z,20.91
2022-10-26T10:24:42.364Z,21.02
2022-10-26T10:25:42.363Z,20.99
2022-10-26T10:26:41.793Z,20.99
2022-10-26T10:27:41.813Z,20.84
2022-10-26T10:28:42.374Z,20.74
2022-10-26T10:29:42.878Z,20.65
2022-10-26T10:30:42.869Z,20.69
2022-10-26T10:31:42.047Z,20.90
2022-10-26T10:32:42.082Z,20.86
2022-10-26T10:33:42.161Z,20.86
2022-10-26T10:34:42.871Z,21.23
2022-10-26T10:35:42.871Z,21.57
2022-10-26T10:36:42.296Z,21.75
2022-10-26T10:37:42.872Z,21.61
2022-10-26T10:38:42.429Z,21.57
2022-10-26T10:39:42.458Z,21.45
2022-10-26T10:40:43.376Z,21.57
2022-10-26T10:41:43.373Z,21.21
2022-10-26T10:42:43.372Z,21.44
2022-10-26T10:43:42.703Z,21.41
2022-10-26T10:44:43.377Z,21.76
2022-10-26T10:45:42.784Z,21.91
2022-10-26T10:46:42.845Z,21.79
2022-10-26T10:47:42.903Z,21.91
2022-10-26T10:48:43.058Z,22.02
2022-10-26T10:49:43.042Z,21.94
2022-10-26T10:50:43.241Z,21.29
2022-10-26T10:51:43.165Z,21.79
2022-10-26T10:52:43.927Z,21.95
2022-10-26T10:53:43.943Z,22.22
2022-10-26T10:54:43.903Z,22.25
2022-10-26T10:55:43.467Z,22.52
2022-10-26T10:56:44.426Z,22.27
2022-10-26T10:57:43.555Z,22.28
2022-10-26T10:58:43.555Z,22.04
2022-10-26T10:59:44.441Z,21.63
2022-10-26T11:00:44.436Z,21.19
2022-10-26T11:01:44.534Z,21.08
2022-10-26T11:02:43.857Z,21.09
2022-10-26T11:03:44.434Z,21.05
2022-10-26T11:04:43.889Z,21.20
2022-10-26T11:05:44.954Z,21.36
2022-10-26T11:06:43.999Z,21.17
2022-10-26T11:07:44.122Z,21.21
2022-10-26T11:08:44.115Z,21.26
2022-10-26T11:09:44.232Z,21.34
2022-10-26T11:10:44.258Z,21.51
2022-10-26T11:11:45.758Z,21.41
2022-10-26T11:12:45.001Z,21.23
2022-10-26T11:13:44.946Z,21.19
2022-10-26T11:14:46.377Z,21.04
2022-10-26T11:15:44.487Z,20.99
2022-10-26T11:16:44.540Z,20.90
2022-10-26T11:17:44.593Z,20.83
2022-10-26T11:18:44.613Z,20.86
2022-10-26T11:19:45.395Z,20.91
2022-10-26T11:20:45.479Z,21.05
2022-10-26T11:21:45.394Z,21.05
2022-10-26T11:22:44.892Z,20.98
2022-10-26T11:23:45.394Z,20.98
2022-10-26T11:24:45.896Z,21.45
2022-10-26T11:25:45.020Z,21.69
2022-10-26T11:26:46.389Z,21.74
2022-10-26T11:27:45.118Z,21.60
2022-10-26T11:28:45.901Z,21.48
2022-10-26T11:29:48.590Z,21.63
2022-10-26T11:30:45.903Z,21.64
2022-10-26T11:31:45.326Z,21.32
2022-10-26T11:32:45.400Z,21.66
2022-10-26T11:33:45.453Z,21.45
2022-10-26T11:34:46.398Z,21.67
2022-10-26T11:35:46.398Z,21.60
2022-10-26T11:36:45.601Z,21.61
2022-10-26T11:37:45.687Z,21.61
2022-10-26T11:38:56.393Z,21.36
2022-10-26T11:39:45.784Z,21.46
2022-10-26T11:40:46.456Z,21.66
2022-10-26T11:41:46.457Z,21.41
2022-10-26T11:42:46.051Z,21.83
2022-10-26T11:43:46.966Z,21.91
2022-10-26T11:44:50.411Z,21.82
2022-10-26T11:45:46.961Z,22.06
2022-10-26T11:46:46.224Z,22.19
2022-10-26T11:47:46.276Z,22.31
2022-10-26T11:48:46.939Z,22.17
2022-10-26T11:49:47.001Z,22.09
2022-10-26T11:50:46.951Z,22.07
2022-10-26T11:51:46.586Z,22.07
2022-10-26T11:52:46.626Z,22.07
2022-10-26T11:53:47.446Z,22.47
2022-10-26T11:54:46.745Z,22.68
2022-10-26T11:55:47.415Z,22.56
2022-10-26T11:56:46.750Z,22.28
2022-10-26T11:57:46.810Z,21.97
2022-10-26T11:58:46.866Z,22.02
2022-10-26T11:59:46.953Z,21.99
2022-10-26T12:00:47.917Z,22.14
2022-10-26T12:01:47.939Z,22.07
2022-10-26T12:02:47.119Z,22.04
2022-10-26T12:03:47.157Z,21.98
2022-10-26T12:04:47.919Z,21.92
2022-10-26T12:05:47.918Z,21.90
2022-10-26T12:06:47.374Z,21.38
2022-10-26T12:07:48.169Z,21.27
2022-10-26T12:08:47.474Z,21.38
2022-10-26T12:09:48.423Z,21.61
2022-10-26T12:10:48.484Z,21.79
2022-10-26T12:11:48.451Z,21.23
2022-10-26T12:12:47.872Z,21.14
2022-10-26T12:13:47.856Z,20.87
2022-10-26T12:14:47.855Z,20.66
2022-10-26T12:16:04.368Z,20.61
2022-10-26T12:16:47.967Z,20.71
2022-10-26T12:17:49.218Z,20.89
2022-10-26T12:18:55.576Z,21.06
2022-10-26T12:19:48.986Z,21.08
2022-10-26T12:20:48.948Z,21.24
2022-10-26T12:21:48.957Z,21.57
2022-10-26T12:22:49.137Z,21.39
2022-10-26T12:23:51.748Z,21.60
2022-10-26T12:24:48.969Z,21.45
2022-10-26T12:25:48.933Z,21.53
2022-10-26T12:26:48.518Z,21.66
2022-10-26T12:28:52.344Z,21.13
2022-10-26T12:29:49.484Z,21.16
2022-10-26T12:30:48.756Z,21.23
2022-10-26T12:31:49.441Z,21.16
2022-10-26T12:32:49.115Z,21.23
2022-10-26T12:33:49.434Z,21.24
2022-10-26T12:34:48.931Z,21.53
2022-10-26T12:35:49.010Z,21.66
2022-10-26T12:36:49.039Z,21.66
2022-10-26T12:37:50.202Z,21.50
2022-10-26T12:38:49.145Z,21.53
2022-10-26T12:39:49.943Z,21.36
2022-10-26T12:40:49.292Z,21.51
2022-10-26T12:41:49.309Z,21.46
2022-10-26T12:42:49.365Z,21.61
2022-10-26T12:43:49.948Z,21.53
2022-10-26T12:44:49.470Z,21.48
2022-10-26T12:45:49.573Z,21.36
2022-10-26T12:46:50.451Z,21.20
2022-10-26T12:47:49.870Z,21.16
2022-10-26T12:48:50.443Z,20.98
2022-10-26T12:49:50.448Z,21.06
2022-10-26T12:50:50.444Z,20.95
2022-10-26T12:51:49.886Z,20.99
2022-10-26T12:52:50.890Z,20.93
2022-10-26T12:53:49.973Z,20.96
2022-10-26T12:54:50.947Z,20.99
2022-10-26T12:55:50.089Z,21.06
2022-10-26T12:56:50.104Z,21.09
2022-10-26T12:57:50.158Z,20.89
2022-10-26T12:58:50.950Z,20.77
2022-10-26T12:59:50.263Z,20.93
2022-10-26T13:00:50.341Z,21.08
2022-10-26T13:02:50.753Z,21.11
2022-10-26T13:03:51.449Z,21.06
2022-10-26T13:04:50.524Z,20.91
2022-10-26T13:05:50.576Z,21.09
2022-10-26T13:06:51.452Z,21.06
2022-10-26T13:07:50.706Z,21.06
2022-10-26T13:08:55.134Z,21.09
2022-10-26T13:09:51.450Z,20.90
2022-10-26T13:10:51.449Z,20.90
2022-10-26T13:11:50.898Z,20.89
2022-10-26T13:12:51.400Z,20.81
2022-10-26T13:13:51.952Z,20.66
2022-10-26T13:14:51.052Z,20.62
2022-10-26T13:15:51.134Z,20.56
2022-10-26T13:16:51.195Z,20.42
2022-10-26T13:17:51.232Z,20.54
2022-10-26T13:18:51.955Z,20.34
2022-10-26T13:19:51.958Z,20.38
2022-10-26T13:20:51.957Z,20.47
2022-10-26T13:21:51.421Z,20.47
2022-10-26T13:22:51.805Z,20.54
2022-10-26T13:23:51.554Z,20.50
2022-10-26T13:24:52.460Z,20.58
2022-10-26T13:26:52.461Z,20.47
2022-10-26T13:27:52.027Z,20.46
2022-10-26T13:28:51.818Z,20.49
2022-10-26T13:29:51.835Z,20.49
2022-10-26T13:30:52.465Z,20.47
2022-10-26T13:31:51.942Z,20.41
2022-10-26T13:32:52.963Z,20.56
2022-10-26T13:33:52.076Z,20.51
2022-10-26T13:34:52.097Z,20.53
2022-10-26T13:35:52.963Z,20.49
2022-10-26T13:36:52.963Z,20.46
2022-10-26T13:37:53.347Z,20.35
2022-10-26T13:38:52.331Z,20.33
2022-10-26T13:39:52.357Z,20.34
2022-10-26T13:40:52.965Z,20.41
2022-10-26T13:41:52.463Z,20.42
2022-10-26T13:42:53.471Z,20.47
2022-10-26T13:43:53.473Z,20.51
2022-10-26T13:44:52.658Z,20.53
2022-10-26T13:45:53.469Z,20.50
2022-10-26T13:46:52.716Z,20.47
2022-10-26T13:47:52.971Z,20.42
2022-10-26T13:48:53.467Z,20.53
2022-10-26T13:49:52.900Z,20.47
2022-10-26T13:50:53.545Z,20.53
2022-10-26T13:51:52.974Z,20.49
2022-10-26T13:52:53.327Z,20.56
2022-10-26T13:53:53.972Z,20.53
2022-10-26T13:54:53.170Z,20.61
2022-10-26T13:55:53.978Z,20.56
2022-10-26T13:56:53.240Z,20.49
2022-10-26T13:57:53.283Z,20.49
2022-10-26T13:58:53.977Z,20.47
2022-10-26T13:59:53.411Z,20.46
2022-10-26T14:00:53.515Z,20.41
2022-10-26T14:01:54.559Z,20.50
2022-10-26T14:02:54.475Z,20.58
2022-10-26T14:03:53.591Z,20.59
2022-10-26T14:04:53.680Z,20.59
2022-10-26T14:05:54.477Z,20.64
2022-10-26T14:06:53.770Z,20.65
2022-10-26T14:07:56.845Z,20.68
2022-10-26T14:08:54.476Z,20.65
2022-10-26T14:09:54.494Z,20.69
2022-10-26T14:10:53.983Z,20.58
2022-10-26T14:11:54.981Z,20.49
2022-10-26T14:12:54.148Z,20.43
2022-10-26T14:13:54.112Z,20.43
2022-10-26T14:14:54.187Z,20.43
2022-10-26T14:15:55.005Z,20.39
2022-10-26T14:16:54.295Z,20.33
2022-10-26T14:17:54.979Z,20.34
2022-10-26T14:18:54.374Z,20.30
2022-10-26T14:19:54.417Z,20.34
2022-10-26T14:20:54.980Z,20.33
2022-10-26T14:21:54.555Z,20.34
2022-10-26T14:22:55.483Z,20.27
2022-10-26T14:23:55.488Z,20.27
2022-10-26T14:25:59.072Z,20.35
2022-10-26T14:26:54.805Z,20.41
2022-10-26T14:27:54.858Z,20.47
2022-10-26T14:28:55.484Z,20.47
2022-10-26T14:30:20.336Z,20.42
2022-10-26T14:30:54.983Z,20.47
2022-10-26T14:31:55.065Z,20.47
2022-10-26T14:32:55.986Z,20.49
2022-10-26T14:33:56.002Z,20.53
2022-10-26T14:34:55.191Z,20.47
2022-10-26T14:35:55.997Z,20.46
2022-10-26T14:36:55.321Z,20.31
2022-10-26T14:37:55.369Z,20.30
2022-10-26T14:38:55.395Z,20.33
2022-10-26T14:39:55.444Z,20.24
2022-10-26T14:40:56.503Z,20.24
2022-10-26T14:41:55.575Z,20.20
2022-10-26T14:42:55.646Z,20.18
2022-10-26T14:43:56.493Z,20.16
2022-10-26T14:44:55.705Z,20.15
2022-10-26T14:45:56.492Z,20.12
2022-10-26T14:46:56.496Z,20.10
2022-10-26T14:47:55.883Z,20.06
2022-10-26T14:48:55.932Z,20.05
2022-10-26T14:49:56.547Z,20.08
2022-10-26T14:50:56.997Z,20.08
2022-10-26T14:51:56.994Z,19.97
2022-10-26T14:52:56.138Z,20.00
2022-10-26T14:53:56.197Z,19.95
2022-10-26T14:54:56.219Z,19.86
2022-10-26T14:55:56.994Z,19.80
2022-10-26T14:56:56.996Z,19.86
2022-10-26T14:57:57.003Z,19.84
2022-10-26T14:58:56.456Z,19.76
2022-10-26T14:59:56.477Z,19.66
2022-10-26T15:00:57.572Z,19.75
2022-10-26T15:01:56.701Z,19.69
2022-10-26T15:02:57.508Z,19.75
2022-10-26T15:03:56.724Z,19.63
2022-10-26T15:04:56.730Z,19.70
2022-10-26T15:05:57.503Z,19.63
2022-10-26T15:06:57.506Z,19.61
2022-10-26T15:07:56.893Z,19.66
2022-10-26T15:08:57.499Z,19.63
2022-10-26T15:09:57.018Z,19.65
2022-10-26T15:11:18.066Z,19.68
2022-10-26T15:11:57.089Z,19.78
2022-10-26T15:12:58.011Z,19.68
2022-10-26T15:13:57.192Z,19.69
2022-10-26T15:14:57.274Z,19.60
2022-10-26T15:15:58.562Z,19.61
2022-10-26T15:16:58.008Z,19.54
2022-10-26T15:17:57.422Z,19.57
2022-10-26T15:18:58.007Z,19.53
2022-10-26T15:19:57.524Z,19.40
2022-10-26T15:20:57.597Z,19.36
2022-10-26T15:21:57.598Z,19.39
2022-10-26T15:22:58.508Z,19.35
2022-10-26T15:23:57.702Z,19.29
2022-10-26T15:24:58.516Z,19.21
2022-10-26T15:25:57.827Z,19.20
2022-10-26T15:26:57.862Z,19.17
2022-10-26T15:27:57.904Z,19.11
2022-10-26T15:28:57.955Z,19.10
2022-10-26T15:29:58.006Z,19.10
2022-10-26T15:31:00.589Z,19.20
2022-10-26T15:31:58.176Z,19.14
2022-10-26T15:32:58.161Z,19.15
2022-10-26T15:33:59.012Z,19.13
2022-10-26T15:34:58.262Z,19.05
2022-10-26T15:35:58.333Z,18.86
2022-10-26T15:36:58.409Z,18.84
2022-10-26T15:37:58.412Z,18.84
2022-10-26T15:38:58.461Z,18.79
2022-10-26T15:39:58.526Z,18.86
2022-10-26T15:40:58.575Z,18.82
2022-10-26T15:41:58.657Z,18.73
2022-10-26T15:42:58.708Z,18.67
2022-10-26T15:43:58.726Z,18.67
2022-10-26T15:44:58.771Z,18.67
2022-10-26T15:45:58.846Z,18.57
2022-10-26T15:46:58.873Z,18.42
2022-10-26T15:47:58.926Z,18.49
2022-10-26T15:48:59.518Z,18.34
2022-10-26T15:50:00.160Z,18.21
2022-10-26T15:50:59.105Z,18.12
2022-10-26T15:51:59.157Z,18.19
2022-10-26T15:52:59.177Z,18.13
2022-10-26T15:53:59.227Z,18.24
2022-10-26T15:54:59.280Z,18.22
2022-10-26T15:55:59.360Z,18.15
2022-10-26T15:56:59.431Z,18.09
2022-10-26T15:57:59.437Z,18.04
2022-10-26T15:59:00.025Z,17.99
2022-10-26T15:59:59.647Z,18.03
2022-10-26T16:01:00.583Z,17.88
2022-10-26T16:01:59.769Z,17.78
2022-10-26T16:02:59.683Z,17.64
2022-10-26T16:03:59.729Z,17.59
2022-10-26T16:04:59.790Z,17.53
2022-10-26T16:05:59.905Z,17.54
2022-10-26T16:07:00.524Z,17.48
2022-10-26T16:07:59.937Z,17.48
2022-10-26T16:09:00.020Z,17.44
2022-10-26T16:10:00.042Z,17.35
2022-10-26T16:11:01.023Z,17.32
2022-10-26T16:12:00.136Z,17.40
2022-10-26T16:13:01.025Z,17.32
2022-10-26T16:14:03.506Z,17.36
2022-10-26T16:15:05.597Z,17.29
2022-10-26T16:16:00.341Z,17.25
2022-10-26T16:17:00.420Z,17.25
2022-10-26T16:18:00.448Z,17.22
2022-10-26T16:20:02.278Z,17.20
2022-10-26T16:21:01.530Z,17.14
2022-10-26T16:22:00.720Z,16.99
2022-10-26T16:23:00.688Z,16.92
2022-10-26T16:24:00.741Z,16.95
2022-10-26T16:25:00.788Z,16.89
2022-10-26T16:26:00.839Z,16.81
2022-10-26T16:27:00.923Z,16.73
2022-10-26T16:28:00.938Z,16.70
2022-10-26T16:29:00.991Z,16.73
2022-10-26T16:30:01.044Z,16.65
2022-10-26T16:31:01.086Z,16.58
2022-10-26T16:32:01.171Z,16.58
2022-10-26T16:33:01.189Z,16.59
2022-10-26T16:34:03.987Z,16.65
2022-10-26T16:35:01.289Z,16.67
2022-10-26T16:36:01.352Z,16.68
2022-10-26T16:37:01.412Z,16.67
2022-10-26T16:38:01.439Z,16.62
2022-10-26T16:40:01.541Z,16.59
2022-10-26T16:41:01.627Z,16.53
2022-10-26T16:42:01.636Z,16.52
2022-10-26T16:43:01.691Z,16.41
2022-10-26T16:44:01.737Z,16.49
2022-10-26T16:45:02.945Z,16.45
2022-10-26T16:46:01.862Z,16.41
2022-10-26T16:47:01.888Z,16.37
2022-10-26T16:48:01.985Z,16.42
2022-10-26T16:49:01.987Z,16.40
2022-10-26T16:50:02.038Z,16.27
2022-10-26T16:51:02.087Z,16.38
2022-10-26T16:52:02.170Z,16.33
2022-10-26T16:53:02.222Z,16.33
2022-10-26T16:54:02.236Z,16.26
2022-10-26T16:55:02.289Z,16.25
2022-10-26T16:56:02.334Z,16.25
2022-10-26T16:57:02.419Z,16.22
2022-10-26T16:58:02.437Z,16.25
2022-10-26T16:59:02.486Z,16.23
2022-10-26T17:00:02.534Z,16.31
2022-10-26T17:01:04.331Z,16.30
2022-10-26T17:02:02.843Z,16.35
2022-10-26T17:03:02.684Z,16.26
2022-10-26T17:05:06.035Z,16.25
2022-10-26T17:06:03.268Z,16.22
2022-10-26T17:07:02.904Z,16.23
2022-10-26T17:08:02.979Z,16.22
2022-10-26T17:09:02.978Z,16.26
2022-10-26T17:10:03.030Z,16.30
2022-10-26T17:11:03.079Z,16.27
2022-10-26T17:12:03.126Z,16.33
2022-10-26T17:13:03.209Z,16.35
2022-10-26T17:14:03.223Z,16.27
2022-10-26T17:15:03.319Z,16.25
2022-10-26T17:16:04.052Z,16.25
2022-10-26T17:17:03.374Z,16.27
2022-10-26T17:18:03.425Z,16.23
2022-10-26T17:19:03.472Z,16.18
2022-10-26T17:20:03.552Z,16.25
2022-10-26T17:21:03.604Z,16.12
2022-10-26T17:22:05.148Z,16.07
2022-10-26T17:23:03.675Z,16.04
2022-10-26T17:24:03.721Z,16.15
2022-10-26T17:25:03.776Z,16.03
2022-10-26T17:26:03.847Z,15.97
2022-10-26T17:27:03.872Z,15.96
2022-10-26T17:28:03.949Z,15.93
2022-10-26T17:29:04.029Z,15.96
2022-10-26T17:30:04.014Z,15.92
2022-10-26T17:31:04.072Z,15.79
2022-10-26T17:32:04.119Z,15.93
2022-10-26T17:33:04.189Z,15.89
2022-10-26T17:34:04.248Z,15.94
2022-10-26T17:35:04.296Z,16.01
2022-10-26T17:36:04.318Z,15.99
2022-10-26T17:37:04.371Z,16.00
2022-10-26T17:38:04.414Z,16.01
2022-10-26T17:39:04.463Z,16.04
2022-10-26T17:40:04.571Z,16.11
2022-10-26T17:41:05.557Z,16.14
2022-10-26T17:42:04.614Z,16.16
2022-10-26T17:43:04.660Z,16.20
2022-10-26T17:44:04.711Z,16.12
2022-10-26T17:45:25.812Z,16.06
2022-10-26T17:46:04.811Z,16.07
2022-10-26T17:47:04.858Z,16.04
2022-10-26T17:48:04.908Z,16.03
2022-10-26T17:49:04.957Z,16.01
2022-10-26T17:50:05.035Z,16.14
2022-10-26T17:51:05.056Z,16.03
2022-10-26T17:52:05.105Z,15.99
2022-10-26T17:53:05.180Z,15.99
2022-10-26T17:54:05.327Z,16.00
2022-10-26T17:55:05.251Z,15.93
2022-10-26T17:56:05.325Z,15.86
2022-10-26T17:57:05.347Z,15.94
2022-10-26T17:58:05.395Z,15.86
2022-10-26T17:59:05.480Z,15.92
2022-10-26T18:00:05.528Z,15.86
2022-10-26T18:01:05.641Z,15.88
2022-10-26T18:02:06.676Z,15.89
2022-10-26T18:03:05.649Z,15.85
2022-10-26T18:04:05.692Z,15.81
2022-10-26T18:05:06.923Z,15.76
2022-10-26T18:06:06.751Z,15.68
2022-10-26T18:07:06.282Z,15.67
2022-10-26T18:08:05.891Z,15.68
2022-10-26T18:09:05.947Z,15.74
2022-10-26T18:10:19.608Z,15.68
2022-10-26T18:11:06.039Z,15.57
2022-10-26T18:12:06.123Z,15.63
2022-10-26T18:13:06.141Z,15.60
2022-10-26T18:14:06.223Z,15.60
2022-10-26T18:15:06.235Z,15.57
2022-10-26T18:16:06.287Z,15.57
2022-10-26T18:17:07.066Z,15.61
2022-10-26T18:18:06.400Z,15.64
2022-10-26T18:19:06.482Z,15.61
2022-10-26T18:20:07.068Z,15.59
2022-10-26T18:21:06.527Z,15.57
2022-10-26T18:22:06.577Z,15.66
2022-10-26T18:23:07.576Z,15.67
2022-10-26T18:24:06.721Z,15.61
2022-10-26T18:25:07.573Z,15.64
2022-10-26T18:26:11.301Z,15.63
2022-10-26T18:27:06.832Z,15.64
2022-10-26T18:28:07.614Z,15.68
2022-10-26T18:29:06.956Z,15.60
2022-10-26T18:30:07.011Z,15.56
2022-10-26T18:31:07.022Z,15.54
2022-10-26T18:32:07.107Z,15.64
2022-10-26T18:33:08.079Z,15.64
2022-10-26T18:34:07.167Z,15.61
2022-10-26T18:35:07.266Z,15.59
2022-10-26T18:36:08.070Z,15.60
2022-10-26T18:37:08.072Z,15.54
2022-10-26T18:38:07.390Z,15.57
2022-10-26T18:39:07.412Z,15.48
2022-10-26T18:40:08.072Z,15.54
2022-10-26T18:41:07.512Z,15.48
2022-10-26T18:42:07.589Z,15.52
2022-10-26T18:43:07.610Z,15.46
2022-10-26T18:44:07.688Z,15.46
2022-10-26T18:45:07.753Z,15.45
2022-10-26T18:46:08.575Z,15.43
2022-10-26T18:47:07.814Z,15.41
2022-10-26T18:48:07.858Z,15.39
2022-10-26T18:49:07.933Z,15.45